createdAt,value
2023-03-07T00:01:47.396Z,76.55
2023-03-07T00:06:49.041Z,76.25
2023-03-07T00:11:50.785Z,76.25
2023-03-07T00:16:52.463Z,76.09
2023-03-07T00:21:54.057Z,76.32
2023-03-07T00:26:55.633Z,75.81
2023-03-07T00:31:57.290Z,75.15
2023-03-07T00:36:58.872Z,75.37
2023-03-07T00:42:00.466Z,75.15
2023-03-07T00:47:02.505Z,74.64
2023-03-07T00:52:04.318Z,74.78
2023-03-07T00:57:05.953Z,73.75
2023-03-07T01:02:07.652Z,73.97
2023-03-07T01:07:09.320Z,74.24
2023-03-07T01:12:11.046Z,73.47
2023-03-07T01:17:12.625Z,73.13
2023-03-07T01:22:14.380Z,73.45
2023-03-07T01:27:16.071Z,73.29
2023-03-07T01:32:17.902Z,73.06
2023-03-07T01:37:19.552Z,73.56
2023-03-07T01:42:22.029Z,74.59
2023-03-07T01:47:25.801Z,76.33
2023-03-07T01:52:48.712Z,78.97
2023-03-07T01:57:52.281Z,79.80
2023-03-07T02:03:25.205Z,79.96
2023-03-07T02:08:29.608Z,80.34
2023-03-07T02:13:31.241Z,80.43
2023-03-07T02:18:38.698Z,80.09
2023-03-07T02:24:17.628Z,80.41
2023-03-07T02:29:20.312Z,80.94
2023-03-07T02:34:28.058Z,80.70
2023-03-07T02:39:49.916Z,80.36
2023-03-07T02:45:15.526Z,80.75
2023-03-07T02:50:18.083Z,80.76
2023-03-07T02:55:23.778Z,80.62
2023-03-07T03:00:32.618Z,80.30
2023-03-07T03:05:34.334Z,80.78
2023-03-07T03:10:36.379Z,80.58
2023-03-07T03:15:38.212Z,79.93
2023-03-07T03:20:40.927Z,79.47
2023-03-07T03:25:42.846Z,79.38
2023-03-07T03:30:44.423Z,79.22
2023-03-07T03:35:46.116Z,79.29
2023-03-07T03:40:48.395Z,78.85
2023-03-07T03:45:58.058Z,78.67
2023-03-07T03:51:14.630Z,78.70
2023-03-07T03:56:21.518Z,79.10
2023-03-07T04:01:26.533Z,78.87
2023-03-07T04:06:30.765Z,78.48
2023-03-07T04:11:33.330Z,78.51
2023-03-07T04:16:35.484Z,78.33
2023-03-07T04:21:37.150Z,78.08
2023-03-07T04:26:41.235Z,77.83
2023-03-07T04:31:42.938Z,77.58
2023-03-07T04:36:45.423Z,77.10
2023-03-07T04:41:48.511Z,76.88
2023-03-07T04:46:52.594Z,76.60
2023-03-07T04:51:54.414Z,76.15
2023-03-07T04:56:56.474Z,75.97
2023-03-07T05:01:58.039Z,75.71
2023-03-07T05:06:59.932Z,75.39
2023-03-07T05:12:01.551Z,74.28
2023-03-07T05:17:04.361Z,74.27
2023-03-07T05:22:06.076Z,74.12
2023-03-07T05:27:07.877Z,73.92
2023-03-07T05:32:11.023Z,73.74
2023-03-07T05:37:13.411Z,73.73
2023-03-07T05:42:15.676Z,73.21
2023-03-07T05:47:17.699Z,73.44
2023-03-07T05:52:20.621Z,73.35
2023-03-07T05:57:22.714Z,73.23
2023-03-07T06:02:24.395Z,73.25
2023-03-07T06:07:27.000Z,73.11
2023-03-07T06:12:28.859Z,72.83
2023-03-07T06:17:30.486Z,72.65
2023-03-07T06:22:34.708Z,72.60
2023-03-07T06:27:38.038Z,72.79
2023-03-07T06:32:39.998Z,72.62
2023-03-07T06:37:42.459Z,72.53
2023-03-07T06:42:44.051Z,72.22
2023-03-07T06:47:46.525Z,72.07
2023-03-07T06:52:49.878Z,71.85
2023-03-07T06:57:51.577Z,70.99
2023-03-07T07:02:55.169Z,70.97
2023-03-07T07:07:56.849Z,70.94
2023-03-07T07:12:59.085Z,70.73
2023-03-07T07:18:02.250Z,70.93
2023-03-07T07:23:07.093Z,70.67
2023-03-07T07:28:11.545Z,69.71
2023-03-07T07:33:13.416Z,69.37
2023-03-07T07:38:15.383Z,68.63
2023-03-07T07:43:17.878Z,68.68
2023-03-07T07:48:31.610Z,67.99
2023-03-07T07:53:34.242Z,67.00
2023-03-07T07:58:36.266Z,67.95
2023-03-07T08:03:38.687Z,66.52
2023-03-07T08:08:40.259Z,65.72
2023-03-07T08:13:41.846Z,65.79
2023-03-07T08:18:47.820Z,66.16
2023-03-07T08:23:49.732Z,65.29
2023-03-07T08:28:51.330Z,65.29
2023-03-07T08:33:53.177Z,64.89
2023-03-07T08:38:54.690Z,65.63
2023-03-07T08:43:56.315Z,64.04
2023-03-07T08:48:57.814Z,64.91
2023-03-07T08:53:59.364Z,63.67
2023-03-07T08:59:00.916Z,63.88
2023-03-07T09:04:02.604Z,64.65
2023-03-07T09:09:05.988Z,64.18
2023-03-07T09:14:07.622Z,64.47
2023-03-07T09:19:13.855Z,64.60
2023-03-07T09:24:15.480Z,64.46
2023-03-07T09:29:17.174Z,63.87
2023-03-07T09:34:18.687Z,63.53
2023-03-07T09:39:25.959Z,62.46
2023-03-07T09:44:47.093Z,62.55
2023-03-07T09:50:24.781Z,62.87
2023-03-07T09:55:29.880Z,62.43
2023-03-07T10:00:33.722Z,62.04
2023-03-07T10:05:58.529Z,61.91
2023-03-07T10:11:23.084Z,62.11
2023-03-07T10:16:43.006Z,61.17
2023-03-07T10:21:47.490Z,61.20
2023-03-07T10:27:06.666Z,62.48
2023-03-07T10:32:39.363Z,60.90
2023-03-07T10:37:55.959Z,60.11
2023-03-07T10:42:59.348Z,59.27
2023-03-07T10:48:08.236Z,57.85
2023-03-07T10:53:24.484Z,57.84
2023-03-07T10:58:27.959Z,55.50
2023-03-07T11:03:42.499Z,55.40
2023-03-07T11:08:51.467Z,55.44
2023-03-07T11:14:08.369Z,54.47
2023-03-07T11:19:32.189Z,54.92
2023-03-07T11:24:39.048Z,54.17
2023-03-07T11:29:40.579Z,52.18
2023-03-07T11:34:59.425Z,53.41
2023-03-07T11:40:32.162Z,52.72
2023-03-07T11:45:43.279Z,53.05
2023-03-07T11:50:53.455Z,52.17
2023-03-07T11:56:25.888Z,52.38
2023-03-07T12:01:44.842Z,52.59
2023-03-07T12:06:52.755Z,50.86
2023-03-07T12:11:57.643Z,51.83
2023-03-07T12:17:25.659Z,51.10
2023-03-07T12:22:29.072Z,51.47
2023-03-07T12:27:52.482Z,50.36
2023-03-07T12:32:54.917Z,50.36
2023-03-07T12:38:18.474Z,50.76
2023-03-07T12:43:33.495Z,49.93
2023-03-07T12:48:58.923Z,50.74
2023-03-07T12:54:07.124Z,51.52
2023-03-07T12:59:12.933Z,50.49
2023-03-07T13:04:17.561Z,51.12
2023-03-07T13:09:24.963Z,50.39
2023-03-07T13:14:43.912Z,50.73
2023-03-07T13:19:56.950Z,51.44
2023-03-07T13:25:27.647Z,51.18
2023-03-07T13:30:31.558Z,51.62
2023-03-07T13:35:38.977Z,51.10
2023-03-07T13:40:43.373Z,50.23
2023-03-07T13:45:46.686Z,50.77
2023-03-07T13:50:48.215Z,51.28
2023-03-07T13:56:20.307Z,51.07
2023-03-07T14:01:26.642Z,50.57
2023-03-07T14:06:36.496Z,50.79
2023-03-07T14:11:47.587Z,50.95
2023-03-07T14:17:18.529Z,51.09
2023-03-07T14:22:44.209Z,51.92
2023-03-07T14:28:03.683Z,51.20
2023-03-07T14:33:05.239Z,51.30
2023-03-07T14:38:16.748Z,52.68
2023-03-07T14:43:33.075Z,52.22
2023-03-07T14:48:56.931Z,53.06
2023-03-07T14:54:04.910Z,53.33
2023-03-07T14:59:10.800Z,52.76
2023-03-07T15:04:28.704Z,53.56
2023-03-07T15:09:32.136Z,52.45
2023-03-07T15:14:45.644Z,53.52
2023-03-07T15:19:52.757Z,52.10
2023-03-07T15:24:55.163Z,51.72
2023-03-07T15:30:01.915Z,53.43
2023-03-07T15:35:15.073Z,53.02
2023-03-07T15:40:28.373Z,52.17
2023-03-07T15:45:38.969Z,52.28
2023-03-07T15:50:40.562Z,53.30
2023-03-07T15:55:42.946Z,52.79
2023-03-07T16:00:44.503Z,52.92
2023-03-07T16:05:46.046Z,52.93
2023-03-07T16:11:00.397Z,53.12
2023-03-07T16:16:16.499Z,53.51
2023-03-07T16:21:19.355Z,54.41
2023-03-07T16:26:23.745Z,53.99
2023-03-07T16:31:25.317Z,54.17
2023-03-07T16:36:26.815Z,54.35
2023-03-07T16:41:28.747Z,55.36
2023-03-07T16:46:30.630Z,55.40
2023-03-07T16:51:32.488Z,55.68
2023-03-07T16:56:40.810Z,54.63
2023-03-07T17:01:45.992Z,55.59
2023-03-07T17:06:57.745Z,55.09
2023-03-07T17:12:03.173Z,55.83
2023-03-07T17:17:05.820Z,55.60
2023-03-07T17:22:07.474Z,55.55
2023-03-07T17:27:09.469Z,56.27
2023-03-07T17:32:11.546Z,56.41
2023-03-07T17:37:13.777Z,56.72
2023-03-07T17:42:15.368Z,56.09
2023-03-07T17:47:16.883Z,57.03
2023-03-07T17:52:18.374Z,56.59
2023-03-07T17:57:20.578Z,56.80
2023-03-07T18:02:24.650Z,56.65
2023-03-07T18:07:26.210Z,57.31
2023-03-07T18:12:27.763Z,56.53
2023-03-07T18:17:35.741Z,56.60
2023-03-07T18:22:47.803Z,57.09
2023-03-07T18:27:49.924Z,57.04
2023-03-07T18:32:55.292Z,56.94
2023-03-07T18:37:58.291Z,56.62
2023-03-07T18:43:00.600Z,57.00
2023-03-07T18:48:02.144Z,57.11
2023-03-07T18:53:06.677Z,57.12
2023-03-07T18:58:10.319Z,57.26
2023-03-07T19:03:11.873Z,57.79
2023-03-07T19:08:14.065Z,57.19
2023-03-07T19:13:15.611Z,57.38
2023-03-07T19:18:17.138Z,58.04
2023-03-07T19:23:21.236Z,57.51
2023-03-07T19:28:22.742Z,58.16
2023-03-07T19:33:25.078Z,57.93
2023-03-07T19:38:26.570Z,57.81
2023-03-07T19:43:28.980Z,57.25
2023-03-07T19:48:30.523Z,57.80
2023-03-07T19:53:32.052Z,57.62
2023-03-07T19:58:36.043Z,57.34
2023-03-07T20:03:40.196Z,57.23
2023-03-07T20:08:42.184Z,57.49
2023-03-07T20:13:48.220Z,57.04
2023-03-07T20:18:51.847Z,57.21
2023-03-07T20:23:53.940Z,57.35
2023-03-07T20:28:56.360Z,57.11
2023-03-07T20:33:59.672Z,57.50
2023-03-07T20:39:04.508Z,57.73
2023-03-07T20:44:08.674Z,57.51
2023-03-07T20:49:13.285Z,57.41
2023-03-07T20:54:17.076Z,58.12
2023-03-07T20:59:18.915Z,57.57
2023-03-07T21:04:21.014Z,58.08
2023-03-07T21:09:23.368Z,58.21
2023-03-07T21:14:26.919Z,57.83
2023-03-07T21:19:28.398Z,58.25
2023-03-07T21:24:29.880Z,58.19
2023-03-07T21:29:31.385Z,58.75
2023-03-07T21:34:32.897Z,58.93
2023-03-07T21:39:34.500Z,58.51
2023-03-07T21:44:36.035Z,58.81
2023-03-07T21:49:37.541Z,58.51
2023-03-07T21:54:39.014Z,57.87
2023-03-07T21:59:40.625Z,57.78
2023-03-07T22:04:42.111Z,57.75
2023-03-07T22:09:43.633Z,57.96
2023-03-07T22:14:46.650Z,57.75
2023-03-07T22:19:48.222Z,57.16
2023-03-07T22:24:49.925Z,57.42
2023-03-07T22:29:51.462Z,57.45
2023-03-07T22:34:53.055Z,57.50
2023-03-07T22:39:54.805Z,57.13
2023-03-07T22:44:56.313Z,57.56
2023-03-07T22:49:57.826Z,57.38
2023-03-07T22:54:59.363Z,57.37
2023-03-07T23:00:00.914Z,57.29
2023-03-07T23:05:02.464Z,57.52
2023-03-07T23:10:06.420Z,57.28
2023-03-07T23:15:08.353Z,57.44
2023-03-07T23:20:10.981Z,57.72
2023-03-07T23:25:13.594Z,57.68
2023-03-07T23:30:17.423Z,58.06
2023-03-07T23:35:18.925Z,57.70
2023-03-07T23:40:22.923Z,57.92
2023-03-07T23:45:24.970Z,57.91
2023-03-07T23:50:26.517Z,57.79
2023-03-07T23:55:28.016Z,57.50
